createdAt,value
2023-04-18T00:01:52.577Z,40.63
2023-04-18T00:04:20.037Z,39.65
2023-04-18T00:06:49.638Z,38.90
2023-04-18T00:09:16.503Z,40.95
2023-04-18T00:11:43.587Z,41.60
2023-04-18T00:14:10.506Z,39.90
2023-04-18T00:16:38.170Z,40.17
2023-04-18T00:19:05.258Z,39.92
2023-04-18T00:21:32.128Z,40.90
2023-04-18T00:23:58.923Z,38.83
2023-04-18T00:26:27.220Z,42.25
2023-04-18T00:28:53.941Z,39.72
2023-04-18T00:31:20.763Z,41.17
2023-04-18T00:33:47.682Z,38.22
2023-04-18T00:36:14.472Z,38.22
2023-04-18T00:38:41.304Z,38.03
2023-04-18T00:41:08.086Z,40.30
2023-04-18T00:43:35.147Z,37.85
2023-04-18T00:46:01.965Z,36.72
2023-04-18T00:48:30.132Z,38.17
2023-04-18T00:50:57.706Z,36.03
2023-04-18T00:53:24.660Z,34.17
2023-04-18T00:55:51.595Z,35.25
2023-04-18T00:58:18.314Z,33.67
2023-04-18T01:00:45.770Z,32.60
2023-04-18T01:03:14.540Z,36.53
2023-04-18T01:05:41.773Z,33.13
2023-04-18T01:08:08.700Z,33.25
2023-04-18T01:10:36.267Z,33.28
2023-04-18T01:13:21.459Z,32.78
2023-04-18T01:15:50.425Z,30.83
2023-04-18T01:18:18.239Z,28.83
2023-04-18T01:20:54.672Z,30.45
2023-04-18T01:23:21.597Z,28.73
2023-04-18T01:25:51.827Z,29.98
2023-04-18T01:28:22.710Z,27.15
2023-04-18T01:30:49.796Z,27.02
2023-04-18T01:33:16.624Z,29.00
2023-04-18T01:35:43.325Z,27.70
2023-04-18T01:38:10.031Z,27.80
2023-04-18T01:40:36.819Z,24.83
2023-04-18T01:43:03.556Z,24.40
2023-04-18T01:45:30.303Z,21.95
2023-04-18T01:47:57.103Z,21.58
2023-04-18T01:50:24.009Z,25.27
2023-04-18T01:52:51.010Z,26.15
2023-04-18T01:55:17.972Z,20.75
2023-04-18T01:57:44.753Z,23.85
2023-04-18T02:00:12.086Z,20.63
2023-04-18T02:02:38.958Z,19.92
2023-04-18T02:05:06.264Z,20.75
2023-04-18T02:07:32.983Z,23.42
2023-04-18T02:09:59.764Z,18.88
2023-04-18T02:12:26.580Z,23.08
2023-04-18T02:14:53.720Z,20.63
2023-04-18T02:17:21.513Z,18.85
2023-04-18T02:19:48.426Z,17.48
2023-04-18T02:22:15.181Z,16.17
2023-04-18T02:24:41.921Z,14.77
2023-04-18T02:27:09.720Z,17.60
2023-04-18T02:29:36.605Z,17.95
2023-04-18T02:32:03.856Z,15.88
2023-04-18T02:34:32.445Z,14.82
2023-04-18T02:36:59.376Z,16.05
2023-04-18T02:39:26.113Z,16.30
2023-04-18T02:41:52.878Z,16.63
2023-04-18T02:44:20.292Z,17.70
2023-04-18T02:46:47.101Z,15.18
2023-04-18T02:49:14.256Z,17.15
2023-04-18T02:51:41.077Z,15.73
2023-04-18T02:54:07.989Z,15.25
2023-04-18T02:56:39.853Z,16.98
2023-04-18T02:59:07.199Z,16.52
2023-04-18T03:01:34.156Z,14.77
2023-04-18T03:04:01.117Z,18.00
2023-04-18T03:06:27.883Z,15.50
2023-04-18T03:08:55.716Z,15.32
2023-04-18T03:11:22.601Z,15.43
2023-04-18T03:13:49.302Z,17.30
2023-04-18T03:16:16.779Z,15.88
2023-04-18T03:18:43.798Z,14.73
2023-04-18T03:21:11.423Z,14.18
2023-04-18T03:23:38.379Z,16.60
2023-04-18T03:26:08.741Z,14.63
2023-04-18T03:28:35.629Z,16.90
2023-04-18T03:31:02.487Z,16.08
2023-04-18T03:33:29.376Z,13.68
2023-04-18T03:35:56.265Z,15.95
2023-04-18T03:38:23.033Z,16.83
2023-04-18T03:40:49.948Z,18.77
2023-04-18T03:43:16.707Z,15.27
2023-04-18T03:45:44.389Z,20.95
2023-04-18T03:48:11.116Z,15.52
2023-04-18T03:50:37.825Z,13.57
2023-04-18T03:53:04.654Z,15.10
2023-04-18T03:55:31.466Z,14.48
2023-04-18T03:57:59.229Z,16.80
2023-04-18T04:00:26.426Z,16.17
2023-04-18T04:02:53.360Z,16.27
2023-04-18T04:05:20.279Z,14.98
2023-04-18T04:07:47.433Z,17.35
2023-04-18T04:10:14.371Z,16.08
2023-04-18T04:12:41.370Z,15.10
2023-04-18T04:15:08.620Z,16.92
2023-04-18T04:17:35.466Z,18.55
2023-04-18T04:20:02.591Z,14.55
2023-04-18T04:22:29.282Z,16.42
2023-04-18T04:24:57.773Z,16.38
2023-04-18T04:27:25.121Z,16.30
2023-04-18T04:29:52.336Z,18.77
2023-04-18T04:32:20.295Z,15.95
2023-04-18T04:34:47.128Z,30.50
2023-04-18T04:37:19.802Z,19.00
2023-04-18T04:39:46.579Z,15.05
2023-04-18T04:42:13.418Z,15.80
2023-04-18T04:44:41.604Z,14.15
2023-04-18T04:47:08.512Z,17.38
2023-04-18T04:49:35.265Z,20.02
2023-04-18T04:52:02.934Z,18.80
2023-04-18T04:54:30.152Z,17.77
2023-04-18T04:56:56.904Z,16.92
2023-04-18T04:59:23.650Z,19.20
2023-04-18T05:01:50.519Z,15.63
2023-04-18T05:04:17.686Z,16.98
2023-04-18T05:06:45.434Z,18.02
2023-04-18T05:09:12.140Z,19.08
2023-04-18T05:11:38.848Z,15.77
2023-04-18T05:14:05.690Z,19.35
2023-04-18T05:16:32.931Z,14.88
2023-04-18T05:18:59.777Z,16.48
2023-04-18T05:21:28.588Z,18.23
2023-04-18T05:23:56.299Z,20.50
2023-04-18T05:26:23.357Z,18.92
2023-04-18T05:28:50.220Z,17.27
2023-04-18T05:31:17.066Z,17.38
2023-04-18T05:33:43.902Z,20.27
2023-04-18T05:36:10.742Z,16.65
2023-04-18T05:38:37.667Z,21.55
2023-04-18T05:41:05.418Z,24.20
2023-04-18T05:43:32.199Z,17.33
2023-04-18T05:45:58.855Z,19.77
2023-04-18T05:48:25.728Z,17.38
2023-04-18T05:50:52.446Z,18.05
2023-04-18T05:53:19.182Z,16.02
2023-04-18T05:55:48.582Z,16.73
2023-04-18T05:58:15.852Z,15.05
2023-04-18T06:00:43.052Z,17.95
2023-04-18T06:03:11.274Z,20.08
2023-04-18T06:05:38.690Z,17.00
2023-04-18T06:08:05.949Z,16.92
2023-04-18T06:10:33.105Z,14.52
2023-04-18T06:12:59.951Z,12.95
2023-04-18T06:15:26.827Z,13.55
2023-04-18T06:17:53.824Z,13.48
2023-04-18T06:20:20.744Z,14.82
2023-04-18T06:22:47.441Z,17.45
2023-04-18T06:25:14.517Z,12.88
2023-04-18T06:27:41.375Z,16.05
2023-04-18T06:30:08.778Z,13.20
2023-04-18T06:32:35.620Z,14.68
2023-04-18T06:35:02.426Z,15.07
2023-04-18T06:37:29.506Z,15.63
2023-04-18T06:39:56.250Z,14.38
2023-04-18T06:42:23.071Z,15.07
2023-04-18T06:44:50.260Z,15.52
2023-04-18T06:47:17.195Z,14.20
2023-04-18T06:49:43.996Z,14.90
2023-04-18T06:52:10.973Z,22.55
2023-04-18T06:54:37.766Z,16.55
2023-04-18T06:57:04.559Z,16.08
2023-04-18T06:59:31.628Z,17.30
2023-04-18T07:01:58.478Z,17.30
2023-04-18T07:04:25.401Z,16.70
2023-04-18T07:06:52.517Z,18.95
2023-04-18T07:09:19.604Z,17.48
2023-04-18T07:11:46.352Z,17.02
2023-04-18T07:14:13.319Z,19.35
2023-04-18T07:16:40.567Z,17.92
2023-04-18T07:19:07.526Z,19.30
2023-04-18T07:21:34.360Z,19.58
2023-04-18T07:24:01.071Z,20.42
2023-04-18T07:26:27.997Z,18.42
2023-04-18T07:28:54.746Z,15.38
2023-04-18T07:31:21.578Z,21.17
2023-04-18T07:33:48.369Z,18.13
2023-04-18T07:36:15.385Z,20.10
2023-04-18T07:38:42.565Z,17.95
2023-04-18T07:41:09.396Z,19.63
2023-04-18T07:43:36.193Z,18.35
2023-04-18T07:46:03.131Z,21.00
2023-04-18T07:48:29.947Z,14.57
2023-04-18T07:50:56.747Z,18.05
2023-04-18T07:53:23.600Z,17.75
2023-04-18T07:55:50.489Z,18.42
2023-04-18T07:58:17.850Z,14.68
2023-04-18T08:00:44.777Z,19.83
2023-04-18T08:03:12.726Z,17.33
2023-04-18T08:05:41.205Z,17.33
2023-04-18T08:08:10.076Z,17.65
2023-04-18T08:10:37.389Z,17.60
2023-04-18T08:13:04.933Z,20.45
2023-04-18T08:15:32.735Z,17.40
2023-04-18T08:18:00.915Z,16.92
2023-04-18T08:20:28.112Z,16.55
2023-04-18T08:25:24.877Z,15.25
2023-04-18T08:27:51.922Z,16.63
2023-04-18T08:30:18.904Z,16.67
2023-04-18T08:32:45.737Z,17.38
2023-04-18T08:35:12.586Z,16.52
2023-04-18T08:37:39.381Z,17.40
2023-04-18T08:40:07.279Z,16.27
2023-04-18T08:42:35.333Z,15.27
2023-04-18T08:45:02.684Z,17.58
2023-04-18T08:47:30.131Z,14.13
2023-04-18T08:49:58.456Z,17.38
2023-04-18T08:52:27.483Z,14.60
2023-04-18T08:54:54.190Z,13.07
2023-04-18T08:57:26.815Z,15.13
2023-04-18T08:59:54.318Z,13.85
2023-04-18T09:02:26.815Z,14.75
2023-04-18T09:04:55.702Z,14.25
2023-04-18T09:07:29.776Z,14.43
2023-04-18T09:09:58.216Z,13.05
2023-04-18T09:12:27.816Z,16.90
2023-04-18T09:14:57.778Z,17.58
2023-04-18T09:17:35.454Z,15.77
2023-04-18T09:20:05.254Z,17.13
2023-04-18T09:22:54.373Z,16.77
2023-04-18T09:25:35.078Z,14.70
2023-04-18T09:28:02.931Z,14.25
2023-04-18T09:30:33.127Z,14.15
2023-04-18T09:33:01.509Z,15.35
2023-04-18T09:35:28.449Z,12.55
2023-04-18T09:37:55.524Z,13.18
2023-04-18T09:40:22.414Z,16.80
2023-04-18T09:42:51.692Z,13.88
2023-04-18T09:45:18.754Z,12.43
2023-04-18T09:47:45.793Z,13.10
2023-04-18T09:50:12.894Z,14.18
2023-04-18T09:52:42.053Z,12.38
2023-04-18T09:55:15.080Z,15.65
2023-04-18T09:57:45.518Z,14.15
2023-04-18T10:00:24.836Z,12.95
2023-04-18T10:03:08.677Z,13.70
2023-04-18T10:05:38.756Z,11.65
2023-04-18T10:08:07.313Z,10.57
2023-04-18T10:10:34.131Z,12.23
2023-04-18T10:13:02.783Z,11.90
2023-04-18T10:15:31.258Z,10.45
2023-04-18T10:18:05.780Z,13.05
2023-04-18T10:20:34.969Z,10.80
2023-04-18T10:23:31.374Z,11.95
2023-04-18T10:25:59.071Z,23.48
2023-04-18T10:28:27.517Z,22.08
2023-04-18T10:30:56.392Z,17.02
2023-04-18T10:33:32.218Z,14.48
2023-04-18T10:36:17.856Z,12.63
2023-04-18T10:38:50.014Z,11.45
2023-04-18T10:41:22.987Z,11.02
2023-04-18T10:44:14.595Z,12.95
2023-04-18T10:46:48.914Z,12.95
2023-04-18T10:49:25.864Z,10.55
2023-04-18T10:51:55.730Z,12.38
2023-04-18T10:54:28.419Z,11.23
2023-04-18T10:56:57.198Z,10.52
2023-04-18T10:59:25.371Z,18.20
2023-04-18T11:02:07.450Z,13.65
2023-04-18T11:04:34.532Z,15.32
2023-04-18T11:07:01.554Z,17.23
2023-04-18T11:09:28.295Z,14.43
2023-04-18T11:12:12.063Z,12.23
2023-04-18T11:14:47.629Z,11.93
2023-04-18T11:17:20.468Z,11.50
2023-04-18T11:19:48.097Z,15.00
2023-04-18T11:22:15.727Z,15.25
2023-04-18T11:24:42.485Z,15.05
2023-04-18T11:27:11.080Z,10.60
2023-04-18T11:29:38.596Z,8.55
2023-04-18T11:32:09.428Z,10.88
2023-04-18T11:34:36.595Z,10.85
2023-04-18T11:37:07.512Z,10.23
2023-04-18T11:39:43.915Z,10.05
2023-04-18T11:42:11.405Z,10.40
2023-04-18T11:44:39.989Z,7.80
2023-04-18T11:47:23.262Z,8.65
2023-04-18T11:49:57.280Z,9.10
2023-04-18T11:52:24.997Z,6.18
2023-04-18T11:54:51.814Z,7.13
2023-04-18T11:57:24.327Z,7.38
2023-04-18T11:59:52.972Z,10.88
2023-04-18T12:02:21.547Z,6.20
2023-04-18T12:04:53.819Z,6.38
2023-04-18T12:07:34.856Z,6.63
2023-04-18T12:10:02.612Z,7.03
2023-04-18T12:12:29.450Z,8.55
2023-04-18T12:15:05.623Z,36.40
2023-04-18T12:17:32.727Z,11.32
2023-04-18T12:20:10.161Z,6.75
2023-04-18T12:22:49.482Z,9.45
2023-04-18T12:25:26.170Z,6.28
2023-04-18T12:27:58.270Z,8.13
2023-04-18T12:30:30.965Z,7.25
2023-04-18T12:33:04.784Z,6.15
2023-04-18T12:35:32.383Z,8.27
2023-04-18T12:38:01.409Z,9.50
2023-04-18T12:40:29.612Z,6.88
2023-04-18T12:42:56.608Z,8.57
2023-04-18T12:45:24.365Z,8.35
2023-04-18T12:47:53.730Z,11.13
2023-04-18T12:50:23.344Z,7.88
2023-04-18T12:52:53.117Z,7.70
2023-04-18T12:55:21.546Z,8.57
2023-04-18T12:57:51.663Z,5.60
2023-04-18T13:00:18.424Z,7.43
2023-04-18T13:02:45.973Z,8.02
2023-04-18T13:05:14.615Z,8.80
2023-04-18T13:07:42.688Z,7.30
2023-04-18T13:10:11.917Z,8.27
2023-04-18T13:12:40.063Z,6.35
2023-04-18T13:15:08.076Z,5.93
2023-04-18T13:17:36.952Z,4.90
2023-04-18T13:20:06.700Z,5.63
2023-04-18T13:22:33.936Z,6.00
2023-04-18T13:25:00.700Z,5.10
2023-04-18T13:27:27.632Z,4.57
2023-04-18T13:29:55.335Z,4.95
2023-04-18T13:32:22.242Z,3.42
2023-04-18T13:34:49.437Z,4.15
2023-04-18T13:37:16.509Z,6.63
2023-04-18T13:39:43.339Z,4.80
2023-04-18T13:42:10.196Z,7.25
2023-04-18T13:44:37.708Z,7.38
2023-04-18T13:47:05.954Z,8.20
2023-04-18T13:49:34.496Z,8.93
2023-04-18T13:52:01.475Z,9.43
2023-04-18T13:54:30.288Z,5.65
2023-04-18T13:56:58.874Z,5.15
2023-04-18T13:59:26.462Z,5.57
2023-04-18T14:01:54.306Z,5.93
2023-04-18T14:04:22.468Z,6.68
2023-04-18T14:06:50.507Z,7.65
2023-04-18T14:09:17.974Z,7.25
2023-04-18T14:11:45.278Z,8.98
2023-04-18T14:14:12.103Z,8.60
2023-04-18T14:16:38.945Z,8.93
2023-04-18T14:19:05.950Z,8.40
2023-04-18T14:21:32.819Z,5.70
2023-04-18T14:23:59.535Z,5.93
2023-04-18T14:26:26.405Z,6.22
2023-04-18T14:28:53.192Z,4.88
2023-04-18T14:31:20.084Z,5.35
2023-04-18T14:33:46.800Z,5.88
2023-04-18T14:36:15.384Z,4.68
2023-04-18T14:38:42.447Z,5.43
2023-04-18T14:41:09.413Z,4.18
2023-04-18T14:43:36.651Z,5.00
2023-04-18T14:46:03.448Z,6.13
2023-04-18T14:48:30.219Z,5.43
2023-04-18T14:51:02.495Z,5.18
2023-04-18T14:53:29.476Z,4.07
2023-04-18T14:55:56.328Z,3.63
2023-04-18T14:58:23.182Z,3.78
2023-04-18T15:00:51.306Z,4.70
2023-04-18T15:03:18.463Z,3.90
2023-04-18T15:05:48.684Z,6.00
2023-04-18T15:08:16.150Z,5.63
2023-04-18T15:10:43.064Z,4.97
2023-04-18T15:13:11.028Z,6.25
2023-04-18T15:15:39.713Z,6.35
2023-04-18T15:18:08.422Z,6.30
2023-04-18T15:20:39.547Z,4.85
2023-04-18T15:23:07.035Z,6.25
2023-04-18T15:25:35.688Z,7.07
2023-04-18T15:28:02.730Z,6.50
2023-04-18T15:30:29.774Z,6.47
2023-04-18T15:32:57.199Z,7.47
2023-04-18T15:35:24.439Z,7.55
2023-04-18T15:37:51.630Z,8.73
2023-04-18T15:40:18.820Z,7.93
2023-04-18T15:42:46.096Z,7.50
2023-04-18T15:45:13.265Z,7.25
2023-04-18T15:47:41.301Z,7.38
2023-04-18T15:50:09.189Z,7.57
2023-04-18T15:52:36.704Z,9.32
2023-04-18T15:55:04.811Z,7.85
2023-04-18T15:57:31.916Z,8.57
2023-04-18T15:59:59.825Z,9.07
2023-04-18T16:02:27.086Z,5.88
2023-04-18T16:04:53.999Z,6.10
2023-04-18T16:07:21.087Z,6.40
2023-04-18T16:09:47.888Z,6.53
2023-04-18T16:12:14.704Z,8.60
2023-04-18T16:14:41.544Z,12.05
2023-04-18T16:17:08.586Z,7.07
2023-04-18T16:19:38.365Z,5.88
2023-04-18T16:22:07.254Z,8.00
2023-04-18T16:24:34.752Z,5.35
2023-04-18T16:27:01.672Z,8.35
2023-04-18T16:29:28.414Z,5.15
2023-04-18T16:31:55.221Z,7.63
2023-04-18T16:34:22.007Z,6.05
2023-04-18T16:36:51.005Z,6.30
2023-04-18T16:39:19.169Z,6.90
2023-04-18T16:41:45.970Z,6.90
2023-04-18T16:44:13.144Z,7.35
2023-04-18T16:46:40.204Z,7.30
2023-04-18T16:49:07.080Z,6.05
2023-04-18T16:51:36.219Z,6.43
2023-04-18T16:54:03.853Z,7.05
2023-04-18T16:56:30.678Z,8.32
2023-04-18T16:58:58.576Z,8.18
2023-04-18T17:01:25.583Z,8.10
2023-04-18T17:03:52.561Z,8.75
2023-04-18T17:06:19.443Z,7.82
2023-04-18T17:08:46.221Z,8.02
2023-04-18T17:11:13.041Z,8.35
2023-04-18T17:13:39.799Z,7.53
2023-04-18T17:16:07.631Z,6.97
2023-04-18T17:18:34.431Z,6.57
2023-04-18T17:21:01.304Z,8.70
2023-04-18T17:23:28.152Z,7.05
2023-04-18T17:25:54.931Z,9.95
2023-04-18T17:28:23.738Z,7.55
2023-04-18T17:30:50.717Z,7.38
2023-04-18T17:33:17.534Z,6.43
2023-04-18T17:35:44.403Z,6.25
2023-04-18T17:38:13.475Z,5.38
2023-04-18T17:40:40.398Z,6.13
2023-04-18T17:43:07.389Z,8.18
2023-04-18T17:45:34.235Z,6.72
2023-04-18T17:48:03.153Z,6.65
2023-04-18T17:50:30.093Z,7.32
2023-04-18T17:52:57.496Z,6.32
2023-04-18T17:55:26.103Z,8.00
2023-04-18T17:57:52.956Z,5.78
2023-04-18T18:00:20.095Z,5.30
2023-04-18T18:02:47.249Z,7.90
2023-04-18T18:05:14.334Z,5.80
2023-04-18T18:07:45.892Z,6.13
2023-04-18T18:10:22.394Z,6.82
2023-04-18T18:12:49.359Z,6.38
2023-04-18T18:15:16.291Z,6.25
2023-04-18T18:17:43.366Z,6.63
2023-04-18T18:20:12.912Z,6.38
2023-04-18T18:22:39.741Z,6.50
2023-04-18T18:25:07.503Z,5.80
2023-04-18T18:27:34.367Z,6.68
2023-04-18T18:30:01.458Z,4.82
2023-04-18T18:32:28.283Z,5.40
2023-04-18T18:34:55.421Z,5.88
2023-04-18T18:37:24.562Z,5.95
2023-04-18T18:39:51.462Z,5.43
2023-04-18T18:42:18.272Z,5.47
2023-04-18T18:44:45.363Z,6.18
2023-04-18T18:47:12.261Z,8.18
2023-04-18T18:49:40.766Z,5.47
2023-04-18T18:52:07.690Z,8.90
2023-04-18T18:54:34.655Z,5.57
2023-04-18T18:57:04.386Z,5.60
2023-04-18T18:59:31.392Z,6.75
2023-04-18T19:01:58.318Z,6.32
2023-04-18T19:04:26.025Z,7.25
2023-04-18T19:06:53.614Z,7.43
2023-04-18T19:09:20.429Z,6.22
2023-04-18T19:11:47.219Z,7.15
2023-04-18T19:14:14.078Z,7.38
2023-04-18T19:16:41.033Z,5.35
2023-04-18T19:19:08.336Z,9.10
2023-04-18T19:21:35.180Z,5.20
2023-04-18T19:24:01.943Z,4.25
2023-04-18T19:26:28.694Z,5.63
2023-04-18T19:28:55.802Z,7.35
2023-04-18T19:31:22.910Z,4.35
2023-04-18T19:33:50.139Z,3.97
2023-04-18T19:36:17.320Z,4.63
2023-04-18T19:38:44.196Z,4.85
2023-04-18T19:41:11.123Z,5.95
2023-04-18T19:43:38.418Z,3.83
2023-04-18T19:46:05.485Z,5.53
2023-04-18T19:48:32.333Z,5.00
2023-04-18T19:50:59.137Z,3.80
2023-04-18T19:53:26.037Z,4.97
2023-04-18T19:55:54.911Z,5.63
2023-04-18T19:58:39.795Z,6.20
2023-04-18T20:01:07.615Z,6.90
2023-04-18T20:03:34.888Z,5.70
2023-04-18T20:06:01.835Z,4.78
2023-04-18T20:08:29.293Z,5.90
2023-04-18T20:10:56.588Z,4.60
2023-04-18T20:13:23.550Z,4.72
2023-04-18T20:15:50.392Z,5.20
2023-04-18T20:18:17.316Z,4.60
2023-04-18T20:20:44.328Z,5.20
2023-04-18T20:23:11.394Z,4.75
2023-04-18T20:25:38.182Z,3.17
2023-04-18T20:28:05.357Z,5.53
2023-04-18T20:30:38.384Z,5.93
2023-04-18T20:33:05.526Z,5.38
2023-04-18T20:35:32.530Z,4.82
2023-04-18T20:38:00.344Z,5.00
2023-04-18T20:40:28.116Z,4.88
2023-04-18T20:42:57.874Z,5.65
2023-04-18T20:45:25.230Z,5.25
2023-04-18T20:47:52.095Z,6.28
2023-04-18T20:50:20.431Z,5.03
2023-04-18T20:52:47.722Z,5.68
2023-04-18T20:55:16.912Z,4.38
2023-04-18T20:57:43.895Z,5.60
2023-04-18T21:00:13.892Z,4.53
2023-04-18T21:02:41.656Z,7.13
2023-04-18T21:05:08.901Z,3.80
2023-04-18T21:07:36.280Z,6.07
2023-04-18T21:10:06.648Z,3.85
2023-04-18T21:12:33.393Z,4.38
2023-04-18T21:15:00.452Z,6.95
2023-04-18T21:17:27.229Z,4.97
2023-04-18T21:19:55.746Z,4.68
2023-04-18T21:22:22.472Z,4.00
2023-04-18T21:24:49.232Z,3.78
2023-04-18T21:27:16.296Z,3.88
2023-04-18T21:29:43.107Z,4.82
2023-04-18T21:32:09.920Z,4.50
2023-04-18T21:34:36.796Z,4.65
2023-04-18T21:37:03.976Z,3.33
2023-04-18T21:39:31.057Z,3.75
2023-04-18T21:41:57.935Z,5.53
2023-04-18T21:44:24.747Z,4.60
2023-04-18T21:46:51.557Z,4.72
2023-04-18T21:49:18.398Z,6.47
2023-04-18T21:51:45.383Z,4.28
2023-04-18T21:54:12.223Z,4.53
2023-04-18T21:56:39.125Z,4.03
2023-04-18T21:59:05.842Z,3.67
2023-04-18T22:01:34.397Z,5.10
2023-04-18T22:04:02.055Z,5.35
2023-04-18T22:06:29.369Z,4.38
2023-04-18T22:08:56.064Z,3.85
2023-04-18T22:11:23.726Z,4.07
2023-04-18T22:13:54.125Z,6.10
2023-04-18T22:16:24.460Z,4.47
2023-04-18T22:18:51.443Z,5.10
2023-04-18T22:21:18.207Z,8.55
2023-04-18T22:23:44.870Z,4.68
2023-04-18T22:26:11.574Z,6.68
2023-04-18T22:28:38.339Z,3.58
2023-04-18T22:31:05.419Z,5.97
2023-04-18T22:33:32.153Z,6.75
2023-04-18T22:35:59.130Z,4.80
2023-04-18T22:38:25.877Z,4.80
2023-04-18T22:40:52.705Z,4.70
2023-04-18T22:43:22.947Z,5.25
2023-04-18T22:45:50.122Z,4.03
2023-04-18T22:48:17.197Z,3.90
2023-04-18T22:50:44.070Z,4.90
2023-04-18T22:53:11.194Z,3.78
2023-04-18T22:55:42.352Z,3.88
2023-04-18T22:58:10.632Z,4.57
2023-04-18T23:00:37.849Z,4.00
2023-04-18T23:03:04.794Z,3.65
2023-04-18T23:05:31.765Z,2.95
2023-04-18T23:08:00.356Z,3.60
2023-04-18T23:10:27.917Z,3.60
2023-04-18T23:12:54.678Z,3.70
2023-04-18T23:15:22.796Z,3.92
2023-04-18T23:17:55.169Z,6.18
2023-04-18T23:20:23.759Z,4.75
2023-04-18T23:22:51.739Z,8.20
2023-04-18T23:25:19.760Z,6.00
2023-04-18T23:27:46.951Z,5.03
2023-04-18T23:30:13.693Z,4.47
2023-04-18T23:32:40.413Z,4.22
2023-04-18T23:35:07.381Z,3.20
2023-04-18T23:37:34.255Z,6.82
2023-04-18T23:40:01.052Z,5.45
2023-04-18T23:42:27.839Z,3.38
2023-04-18T23:44:54.659Z,4.85
2023-04-18T23:47:21.994Z,5.03
2023-04-18T23:49:48.767Z,5.10
2023-04-18T23:52:15.573Z,5.45
2023-04-18T23:54:42.530Z,3.80
2023-04-18T23:57:09.230Z,5.03
2023-04-18T23:59:36.101Z,4.65
